createdAt,value
2019-03-19T00:01:17.842Z,98778.38
2019-03-19T00:04:07.893Z,98781.52
2019-03-19T00:06:57.540Z,98781.19
2019-03-19T00:09:47.504Z,98777.84
2019-03-19T00:12:37.333Z,98777.02
2019-03-19T00:15:08.455Z,98775.82
2019-03-19T00:17:58.046Z,98777.92
2019-03-19T00:20:28.832Z,98781.31
2019-03-19T00:23:02.038Z,98793.82
2019-03-19T00:25:53.209Z,98793.39
2019-03-19T00:28:43.035Z,98790.25
2019-03-19T00:31:33.344Z,98789.91
2019-03-19T00:34:04.172Z,98791.63
2019-03-19T00:36:53.750Z,98790.46
2019-03-19T00:39:43.472Z,98799.02
2019-03-19T00:42:33.470Z,98789.48
2019-03-19T00:48:32.797Z,98793.39
2019-03-19T00:51:03.679Z,98792.57
2019-03-19T00:53:54.430Z,98788.79
2019-03-19T00:56:44.525Z,98795.31
2019-03-19T00:59:15.123Z,98798.11
2019-03-19T01:02:04.874Z,98801.63
2019-03-19T01:04:54.749Z,98793.91
2019-03-19T01:07:44.752Z,98801.55
2019-03-19T01:10:17.368Z,98797.25
2019-03-19T01:12:48.102Z,98797.69
2019-03-19T01:15:19.159Z,98796.82
2019-03-19T01:17:50.306Z,98801.50
2019-03-19T01:20:40.232Z,98799.70
2019-03-19T01:23:30.173Z,98799.48
2019-03-19T01:26:20.073Z,98796.52
2019-03-19T01:29:09.627Z,98801.15
2019-03-19T01:31:59.655Z,98650.70
2019-03-19T01:34:49.208Z,98794.28
2019-03-19T01:37:39.100Z,98776.16
2019-03-19T01:40:28.587Z,98800.39
2019-03-19T01:42:59.094Z,98802.88
2019-03-19T01:45:48.879Z,98799.09
2019-03-19T01:48:38.913Z,98794.84
2019-03-19T01:51:28.702Z,98801.29
2019-03-19T01:54:18.459Z,98803.56
2019-03-19T01:56:48.975Z,98681.64
2019-03-19T01:59:19.528Z,98799.14
2019-03-19T02:01:50.021Z,98801.68
2019-03-19T02:04:40.682Z,98798.66
2019-03-19T02:07:12.454Z,98799.05
2019-03-19T02:10:02.539Z,98797.33
2019-03-19T02:12:33.051Z,98802.83
2019-03-19T02:15:03.707Z,98806.17
2019-03-19T02:17:45.315Z,98811.19
2019-03-19T02:20:16.378Z,98815.49
2019-03-19T02:22:47.015Z,98815.30
2019-03-19T02:25:17.538Z,98812.91
2019-03-19T02:28:08.614Z,98814.06
2019-03-19T02:30:39.093Z,98818.07
2019-03-19T02:33:30.053Z,98824.09
2019-03-19T02:36:21.443Z,98816.73
2019-03-19T02:38:52.072Z,98814.44
2019-03-19T02:41:41.794Z,98814.39
2019-03-19T02:44:31.680Z,98785.97
2019-03-19T02:47:21.127Z,98810.38
2019-03-19T02:49:51.925Z,98818.50
2019-03-19T02:52:22.795Z,98814.59
2019-03-19T02:55:15.126Z,98806.13
2019-03-19T02:58:05.032Z,98807.41
2019-03-19T03:00:35.920Z,98809.86
2019-03-19T03:03:25.761Z,98811.95
2019-03-19T03:06:15.594Z,98813.20
2019-03-19T03:08:57.626Z,98823.36
2019-03-19T03:11:28.481Z,98824.23
2019-03-19T03:13:58.955Z,98825.89
2019-03-19T03:16:40.656Z,98825.38
2019-03-19T03:19:11.551Z,98817.16
2019-03-19T03:22:02.028Z,98824.95
2019-03-19T03:25:11.743Z,98822.41
2019-03-19T03:27:42.479Z,98831.06
2019-03-19T03:30:13.838Z,98829.81
2019-03-19T03:32:44.649Z,98834.16
2019-03-19T03:35:15.388Z,98836.55
2019-03-19T03:38:05.067Z,98839.95
2019-03-19T03:40:35.681Z,98839.61
2019-03-19T03:43:17.345Z,98843.91
2019-03-19T03:45:59.016Z,98845.97
2019-03-19T03:48:29.542Z,98842.53
2019-03-19T03:51:00.228Z,98848.55
2019-03-19T03:53:49.974Z,98853.38
2019-03-19T03:56:20.471Z,98854.19
2019-03-19T03:59:10.073Z,98851.65
2019-03-19T04:02:00.037Z,98855.91
2019-03-19T04:04:49.743Z,98864.38
2019-03-19T04:07:39.681Z,98869.39
2019-03-19T04:10:29.249Z,98872.73
2019-03-19T04:13:18.836Z,98870.53
2019-03-19T04:16:08.377Z,98863.52
2019-03-19T04:18:58.160Z,98868.53
2019-03-19T04:21:47.630Z,98874.16
2019-03-19T04:24:37.630Z,98874.08
2019-03-19T04:27:27.246Z,98871.02
2019-03-19T04:30:17.040Z,98876.55
2019-03-19T04:33:06.794Z,98877.80
2019-03-19T04:35:56.620Z,98884.58
2019-03-19T04:38:46.849Z,98892.10
2019-03-19T04:41:29.042Z,98902.47
2019-03-19T04:44:01.166Z,98764.80
2019-03-19T04:46:51.115Z,98894.53
2019-03-19T04:49:41.627Z,98896.05
2019-03-19T04:52:30.982Z,98906.48
2019-03-19T04:55:23.476Z,98904.86
2019-03-19T04:58:16.451Z,98904.91
2019-03-19T05:01:06.280Z,98906.05
2019-03-19T05:03:58.521Z,98905.13
2019-03-19T05:06:48.077Z,98914.23
2019-03-19T05:09:37.578Z,98912.45
2019-03-19T05:15:19.934Z,98920.26
2019-03-19T05:17:50.683Z,98926.71
2019-03-19T05:20:22.259Z,98931.77
2019-03-19T05:22:52.786Z,98935.48
2019-03-19T05:25:42.543Z,98935.98
2019-03-19T05:28:32.244Z,98931.25
2019-03-19T05:31:22.834Z,98934.78
2019-03-19T05:34:12.635Z,98944.25
2019-03-19T05:37:02.312Z,98943.25
2019-03-19T05:39:52.789Z,98944.38
2019-03-19T05:42:35.410Z,98950.08
2019-03-19T05:45:17.190Z,98956.64
2019-03-19T05:47:48.292Z,98954.53
2019-03-19T05:50:19.781Z,98962.56
2019-03-19T05:52:53.566Z,98957.94
2019-03-19T05:55:44.151Z,98962.72
2019-03-19T05:58:36.031Z,98969.94
2019-03-19T06:04:18.577Z,98969.08
2019-03-19T06:07:08.008Z,98971.61
2019-03-19T06:09:40.189Z,98976.15
2019-03-19T06:12:30.141Z,98982.61
2019-03-19T06:15:19.876Z,98986.14
2019-03-19T06:17:50.395Z,98988.06
2019-03-19T06:20:23.525Z,98986.05
2019-03-19T06:22:54.237Z,98988.05
2019-03-19T06:25:24.829Z,98993.56
2019-03-19T06:28:14.426Z,98998.44
2019-03-19T06:30:48.836Z,99000.74
2019-03-19T06:33:39.111Z,99005.05
2019-03-19T06:36:09.668Z,99010.31
2019-03-19T06:38:59.183Z,99008.53
2019-03-19T06:41:29.817Z,99005.18
2019-03-19T06:44:14.559Z,99012.02
2019-03-19T06:46:45.116Z,99012.80
2019-03-19T06:49:35.226Z,99022.22
2019-03-19T06:52:34.406Z,99016.95
2019-03-19T06:55:24.366Z,99023.03
2019-03-19T06:58:16.437Z,99023.50
2019-03-19T07:01:05.997Z,99022.84
2019-03-19T07:03:55.643Z,99032.17
2019-03-19T07:06:45.354Z,99022.38
2019-03-19T07:12:21.363Z,99036.26
2019-03-19T07:15:12.476Z,99030.00
2019-03-19T07:17:43.080Z,99039.75
2019-03-19T07:20:32.634Z,99034.75
2019-03-19T07:23:22.191Z,99040.86
2019-03-19T07:25:53.068Z,99042.66
2019-03-19T07:28:23.555Z,99042.83
2019-03-19T07:30:54.984Z,99050.81
2019-03-19T07:33:44.530Z,99054.56
2019-03-19T07:36:34.139Z,99045.59
2019-03-19T07:39:06.982Z,99050.95
2019-03-19T07:41:56.427Z,99055.90
2019-03-19T07:44:27.198Z,99053.05
2019-03-19T07:47:16.755Z,99057.05
2019-03-19T07:50:07.101Z,99061.84
2019-03-19T07:52:57.082Z,99070.03
2019-03-19T07:55:53.310Z,99071.22
2019-03-19T07:58:35.890Z,99068.65
2019-03-19T08:00:57.068Z,99078.05
2019-03-19T08:03:46.549Z,99080.05
2019-03-19T08:06:17.300Z,99079.54
2019-03-19T08:09:07.774Z,99082.09
2019-03-19T08:11:38.717Z,99080.23
2019-03-19T08:14:10.526Z,99088.41
2019-03-19T08:17:00.253Z,99087.52
2019-03-19T08:19:31.920Z,99096.78
2019-03-19T08:22:21.570Z,99101.05
2019-03-19T08:24:53.612Z,99097.73
2019-03-19T08:27:24.889Z,99109.00
2019-03-19T08:29:55.471Z,99110.09
2019-03-19T08:32:25.963Z,99110.49
2019-03-19T08:35:15.586Z,99110.70
2019-03-19T08:37:57.909Z,99104.16
2019-03-19T08:40:28.656Z,99103.98
2019-03-19T08:42:59.647Z,99116.02
2019-03-19T08:45:49.541Z,99113.20
2019-03-19T08:48:20.674Z,99118.17
2019-03-19T08:50:52.101Z,99115.43
2019-03-19T08:53:42.125Z,99093.50
2019-03-19T08:56:13.422Z,99120.08
2019-03-19T08:58:44.517Z,99125.51
2019-03-19T09:01:33.944Z,99127.95
2019-03-19T09:04:04.687Z,99134.66
2019-03-19T09:06:36.537Z,99126.41
2019-03-19T09:09:27.274Z,99130.74
2019-03-19T09:12:16.835Z,99126.14
2019-03-19T09:14:47.750Z,99128.47
2019-03-19T09:17:19.644Z,99134.07
2019-03-19T09:19:50.879Z,99130.40
2019-03-19T09:22:22.867Z,99126.63
2019-03-19T09:24:54.561Z,99135.52
2019-03-19T09:27:44.404Z,99137.56
2019-03-19T09:30:33.950Z,99147.19
2019-03-19T09:33:23.553Z,99144.11
2019-03-19T09:36:13.230Z,99139.11
2019-03-19T09:39:02.928Z,99146.39
2019-03-19T09:41:52.410Z,99143.05
2019-03-19T09:47:12.636Z,99144.67
2019-03-19T09:49:43.240Z,99141.05
2019-03-19T09:52:13.799Z,99146.48
2019-03-19T09:54:46.598Z,99146.70
2019-03-19T09:57:36.780Z,99155.02
2019-03-19T10:00:26.852Z,99147.11
2019-03-19T10:02:57.741Z,99151.33
2019-03-19T10:05:28.320Z,99142.75
2019-03-19T10:07:58.804Z,99147.22
2019-03-19T10:10:33.465Z,99153.27
2019-03-19T10:13:23.566Z,99145.67
2019-03-19T10:15:54.376Z,99139.95
2019-03-19T10:18:26.530Z,99144.37
2019-03-19T10:20:57.199Z,99141.27
2019-03-19T10:23:27.937Z,99147.63
2019-03-19T10:25:58.799Z,99143.31
2019-03-19T10:28:29.341Z,99145.23
2019-03-19T10:31:18.848Z,99150.99
2019-03-19T10:34:09.080Z,99150.05
2019-03-19T10:36:59.387Z,99148.59
2019-03-19T10:39:30.744Z,99150.29
2019-03-19T10:42:21.474Z,99146.98
2019-03-19T10:44:53.121Z,99152.53
2019-03-19T10:47:43.644Z,99154.14
2019-03-19T10:50:19.275Z,99154.59
2019-03-19T10:53:08.767Z,99152.67
2019-03-19T10:55:39.411Z,99151.38
2019-03-19T10:58:11.204Z,99150.67
2019-03-19T11:00:42.269Z,99151.66
2019-03-19T11:03:14.328Z,99160.09
2019-03-19T11:05:46.928Z,99156.14
2019-03-19T11:08:36.606Z,99155.28
2019-03-19T11:11:09.131Z,99160.45
2019-03-19T11:13:59.425Z,99160.05
2019-03-19T11:16:30.380Z,99155.88
2019-03-19T11:19:01.019Z,99165.81
2019-03-19T11:21:50.676Z,99156.34
2019-03-19T11:24:40.490Z,99156.06
2019-03-19T11:27:35.456Z,99151.06
2019-03-19T11:30:26.872Z,99154.92
2019-03-19T11:33:16.474Z,99145.05
2019-03-19T11:36:06.186Z,99146.69
2019-03-19T11:38:55.650Z,99143.28
2019-03-19T11:41:37.607Z,99152.93
2019-03-19T11:44:19.684Z,99144.98
2019-03-19T11:47:01.636Z,99145.13
2019-03-19T11:49:44.766Z,99147.38
2019-03-19T11:52:15.539Z,99141.59
2019-03-19T11:54:46.268Z,99146.88
2019-03-19T11:57:36.038Z,99149.13
2019-03-19T12:00:11.548Z,99097.05
2019-03-19T12:03:12.375Z,99154.11
2019-03-19T12:05:52.589Z,99156.56
2019-03-19T12:08:42.015Z,99106.08
2019-03-19T12:11:31.500Z,99154.88
2019-03-19T12:14:21.302Z,99105.63
2019-03-19T12:16:51.997Z,99149.84
2019-03-19T12:19:41.455Z,99140.98
2019-03-19T12:22:31.223Z,99144.42
2019-03-19T12:25:20.777Z,99139.11
2019-03-19T12:28:39.262Z,99138.45
2019-03-19T12:31:20.266Z,99138.70
2019-03-19T12:34:09.911Z,98991.16
2019-03-19T12:36:59.727Z,99129.50
2019-03-19T12:39:50.413Z,99130.19
2019-03-19T12:42:32.352Z,99134.95
2019-03-19T12:45:14.663Z,99126.15
2019-03-19T12:47:56.996Z,99127.61
2019-03-19T12:50:44.881Z,99136.91
2019-03-19T12:53:26.670Z,99131.13
2019-03-19T12:56:08.230Z,99134.21
2019-03-19T12:58:49.797Z,99053.77
2019-03-19T13:01:32.728Z,99127.47
2019-03-19T13:04:14.602Z,99084.89
2019-03-19T13:07:04.793Z,99122.53
2019-03-19T13:09:55.025Z,99121.84
2019-03-19T13:12:44.791Z,99116.75
2019-03-19T13:15:34.421Z,99118.06
2019-03-19T13:18:23.869Z,99115.81
2019-03-19T13:21:13.751Z,99116.67
2019-03-19T13:24:03.221Z,99114.62
2019-03-19T13:26:35.211Z,99118.45
2019-03-19T13:29:24.700Z,99123.94
2019-03-19T13:31:55.262Z,99120.92
2019-03-19T13:34:26.099Z,99119.34
2019-03-19T13:37:16.463Z,99126.73
2019-03-19T13:40:06.101Z,99128.39
2019-03-19T13:42:56.682Z,99126.63
2019-03-19T13:45:46.446Z,99127.77
2019-03-19T13:48:17.012Z,99131.86
2019-03-19T13:51:06.653Z,99130.70
2019-03-19T13:53:48.702Z,99130.01
2019-03-19T13:56:30.924Z,99136.22
2019-03-19T13:59:13.290Z,99136.88
2019-03-19T14:01:55.281Z,99142.09
2019-03-19T14:04:32.773Z,99134.23
2019-03-19T14:07:03.794Z,99130.01
2019-03-19T14:09:34.409Z,99132.30
2019-03-19T14:12:05.185Z,99128.48
2019-03-19T14:14:54.803Z,99142.40
2019-03-19T14:17:27.387Z,99144.41
2019-03-19T14:20:18.927Z,99149.49
2019-03-19T14:22:49.521Z,99154.63
2019-03-19T14:25:39.089Z,99168.81
2019-03-19T14:28:28.614Z,99176.70
2019-03-19T14:31:18.219Z,99170.27
2019-03-19T14:34:08.174Z,99166.04
2019-03-19T14:36:57.787Z,99019.13
2019-03-19T14:39:47.273Z,99160.63
2019-03-19T14:42:19.640Z,99164.87
2019-03-19T14:45:12.572Z,99151.32
2019-03-19T14:48:02.297Z,99151.61
2019-03-19T14:50:52.864Z,99156.73
2019-03-19T14:53:42.430Z,99156.58
2019-03-19T14:56:32.119Z,99033.56
2019-03-19T14:59:14.437Z,99159.22
2019-03-19T15:01:56.211Z,99168.13
2019-03-19T15:04:26.932Z,99154.33
2019-03-19T15:07:16.418Z,99158.45
2019-03-19T15:10:06.882Z,99158.55
2019-03-19T15:13:15.485Z,99149.00
2019-03-19T15:16:04.967Z,99149.60
2019-03-19T15:18:55.413Z,99160.70
2019-03-19T15:21:35.792Z,99166.63
2019-03-19T15:24:25.420Z,99170.82
2019-03-19T15:27:15.407Z,99164.53
2019-03-19T15:30:05.417Z,99159.97
2019-03-19T15:32:55.258Z,99159.77
2019-03-19T15:35:44.899Z,99169.11
2019-03-19T15:38:34.375Z,99168.44
2019-03-19T15:41:24.661Z,99176.20
2019-03-19T15:44:15.878Z,99170.87
2019-03-19T15:47:06.197Z,99048.67
2019-03-19T15:49:38.454Z,99174.80
2019-03-19T15:52:29.613Z,99176.80
2019-03-19T15:55:00.343Z,99101.61
2019-03-19T15:57:51.070Z,99184.09
2019-03-19T16:00:40.652Z,99193.14
2019-03-19T16:03:12.359Z,99192.56
2019-03-19T16:06:01.990Z,99192.69
2019-03-19T16:08:52.825Z,99190.73
2019-03-19T16:11:43.456Z,99197.92
2019-03-19T16:14:14.399Z,99199.70
2019-03-19T16:16:44.965Z,99201.95
2019-03-19T16:19:37.416Z,99201.09
2019-03-19T16:22:27.039Z,99201.84
2019-03-19T16:25:16.500Z,99198.48
2019-03-19T16:30:43.332Z,99208.80
2019-03-19T16:33:13.885Z,99205.97
2019-03-19T16:36:03.499Z,99201.28
2019-03-19T16:38:34.044Z,99205.97
2019-03-19T16:41:04.725Z,99208.61
2019-03-19T16:43:46.515Z,99216.43
2019-03-19T16:49:11.765Z,99216.84
2019-03-19T16:51:54.673Z,99221.23
2019-03-19T16:54:25.284Z,99228.52
2019-03-19T16:57:14.776Z,99227.66
2019-03-19T17:00:05.151Z,99234.96
2019-03-19T17:02:36.139Z,99231.08
2019-03-19T17:05:07.806Z,99235.84
2019-03-19T17:07:57.343Z,99236.74
2019-03-19T17:10:28.151Z,99241.08
2019-03-19T17:12:59.058Z,99245.00
2019-03-19T17:15:29.808Z,99251.19
2019-03-19T17:18:19.283Z,99255.88
2019-03-19T17:20:50.370Z,99262.69
2019-03-19T17:23:21.149Z,99263.73
2019-03-19T17:25:52.964Z,99265.15
2019-03-19T17:28:23.553Z,99271.22
2019-03-19T17:31:13.539Z,99277.77
2019-03-19T17:33:44.191Z,99277.39
2019-03-19T17:36:15.509Z,99281.02
2019-03-19T17:41:42.423Z,99286.09
2019-03-19T17:47:04.473Z,99289.48
2019-03-19T17:50:49.147Z,99295.38
2019-03-19T17:57:06.825Z,99300.29
2019-03-19T17:59:37.381Z,99308.37
2019-03-19T18:02:10.678Z,99315.72
2019-03-19T18:04:41.647Z,99311.66
2019-03-19T18:07:12.607Z,99316.05
2019-03-19T18:12:22.502Z,99324.31
2019-03-19T18:14:53.953Z,99325.88
2019-03-19T18:17:44.687Z,99329.91
2019-03-19T18:20:15.774Z,99334.77
2019-03-19T18:23:05.416Z,99340.55
2019-03-19T18:25:36.024Z,99346.22
2019-03-19T18:28:07.889Z,99350.63
2019-03-19T18:30:57.488Z,99355.41
2019-03-19T18:33:28.033Z,99357.17
2019-03-19T18:36:00.527Z,99363.30
2019-03-19T18:38:50.020Z,99355.36
2019-03-19T18:41:39.958Z,99361.09
2019-03-19T18:44:10.481Z,99366.41
2019-03-19T18:46:51.504Z,99359.34
2019-03-19T18:52:08.692Z,99360.39
2019-03-19T18:54:39.510Z,99369.47
2019-03-19T18:57:10.714Z,99362.91
2019-03-19T18:59:42.602Z,99368.64
2019-03-19T19:02:32.227Z,99369.20
2019-03-19T19:05:02.758Z,99354.48
2019-03-19T19:07:34.773Z,99369.48
2019-03-19T19:10:24.351Z,99374.89
2019-03-19T19:12:54.979Z,99372.52
2019-03-19T19:15:44.568Z,99374.23
2019-03-19T19:18:15.420Z,99377.88
2019-03-19T19:21:23.730Z,99383.83
2019-03-19T19:24:13.235Z,99381.77
2019-03-19T19:27:03.091Z,99388.73
2019-03-19T19:29:52.632Z,99393.23
2019-03-19T19:32:42.225Z,99393.91
2019-03-19T19:35:31.684Z,99398.03
2019-03-19T19:38:21.379Z,99400.28
2019-03-19T19:40:51.973Z,99405.13
2019-03-19T19:43:41.899Z,99398.00
2019-03-19T19:46:31.486Z,99411.84
2019-03-19T19:49:13.207Z,99414.48
2019-03-19T19:51:44.049Z,99260.70
2019-03-19T19:54:14.608Z,99408.22
2019-03-19T19:56:45.215Z,99407.87
2019-03-19T19:59:34.681Z,99413.20
2019-03-19T20:02:25.414Z,99414.56
2019-03-19T20:05:15.710Z,99417.58
2019-03-19T20:08:05.249Z,99419.38
2019-03-19T20:10:54.704Z,99420.82
2019-03-19T20:13:44.275Z,99425.59
2019-03-19T20:16:20.811Z,99425.70
2019-03-19T20:19:10.322Z,99423.64
2019-03-19T20:21:41.545Z,99426.23
2019-03-19T20:24:12.453Z,99424.97
2019-03-19T20:26:43.243Z,99427.61
2019-03-19T20:29:52.970Z,99426.38
2019-03-19T20:35:20.882Z,99430.72
2019-03-19T20:38:10.725Z,99433.34
2019-03-19T20:40:41.774Z,99434.60
2019-03-19T20:43:31.409Z,99434.69
2019-03-19T20:46:06.954Z,99437.64
2019-03-19T20:48:48.581Z,99442.98
2019-03-19T20:51:27.107Z,99445.19
2019-03-19T20:54:17.780Z,99446.61
2019-03-19T20:56:52.218Z,99447.95
2019-03-19T20:59:41.743Z,99452.76
2019-03-19T21:02:12.243Z,99456.22
2019-03-19T21:04:45.004Z,99463.59
2019-03-19T21:07:15.901Z,99465.39
2019-03-19T21:09:46.437Z,99474.42
2019-03-19T21:12:17.161Z,99475.71
2019-03-19T21:15:07.433Z,99478.30
2019-03-19T21:17:57.183Z,99360.83
2019-03-19T21:20:46.928Z,99480.38
2019-03-19T21:23:17.907Z,99481.30
2019-03-19T21:26:07.603Z,99482.60
2019-03-19T21:28:57.115Z,99483.91
2019-03-19T21:31:46.710Z,99487.77
2019-03-19T21:34:17.642Z,99490.03
2019-03-19T21:36:48.311Z,99487.93
2019-03-19T21:39:37.994Z,99490.51
2019-03-19T21:42:28.227Z,99492.67
2019-03-19T21:44:59.033Z,99499.55
2019-03-19T21:47:48.565Z,99494.86
2019-03-19T21:50:38.454Z,99505.60
2019-03-19T21:53:09.104Z,99506.52
2019-03-19T21:55:58.690Z,99506.08
2019-03-19T21:58:48.171Z,99509.10
2019-03-19T22:01:18.790Z,99510.83
2019-03-19T22:04:03.197Z,99515.98
2019-03-19T22:06:44.962Z,99519.02
2019-03-19T22:09:15.645Z,99522.04
2019-03-19T22:12:05.309Z,99525.04
2019-03-19T22:14:35.910Z,99522.92
2019-03-19T22:17:06.617Z,99520.34
2019-03-19T22:19:37.484Z,99523.36
2019-03-19T22:22:09.050Z,99526.38
2019-03-19T22:28:09.938Z,99522.48
2019-03-19T22:30:41.102Z,99525.12
2019-03-19T22:33:13.423Z,99524.67
2019-03-19T22:36:06.956Z,99526.83
2019-03-19T22:38:42.233Z,99525.53
2019-03-19T22:41:33.131Z,99522.98
2019-03-19T22:44:05.712Z,99529.45
2019-03-19T22:46:55.364Z,99529.86
2019-03-19T22:49:45.835Z,99534.17
2019-03-19T22:52:36.885Z,99526.45
2019-03-19T22:55:29.622Z,99536.75
2019-03-19T22:58:27.900Z,99537.20
2019-03-19T23:01:18.554Z,99541.91
2019-03-19T23:04:09.834Z,99545.34
2019-03-19T23:06:59.329Z,99448.38
2019-03-19T23:09:32.187Z,99546.65
2019-03-19T23:12:22.057Z,99551.36
2019-03-19T23:15:11.988Z,99549.20
2019-03-19T23:18:01.552Z,99549.22
2019-03-19T23:20:53.556Z,99545.34
2019-03-19T23:23:26.085Z,99550.07
2019-03-19T23:26:15.619Z,99548.34
2019-03-19T23:29:05.619Z,99551.80
2019-03-19T23:31:55.019Z,99549.63
2019-03-19T23:34:37.904Z,99546.64
2019-03-19T23:37:18.470Z,99545.78
2019-03-19T23:40:07.983Z,99547.48
2019-03-19T23:45:34.602Z,99460.78
2019-03-19T23:50:52.407Z,99556.07
2019-03-19T23:53:23.681Z,99559.50
2019-03-19T23:56:13.439Z,99561.66
2019-03-19T23:58:46.079Z,99559.52
